Camacho, Mexico

1:17 PM MDT on May 28, 2017 (GMT -0600)
UNIDAD DEPORTIVA BENITO JUAREZ | | Change Station

Elev 45 ft 23.24 °N, 106.41 °W | Updated 1 second ago

Clear
Clear
82.3 °F
Feels Like 89 °F
N
5.0
Wind Variable Wind from SW
Gusts 14.0 mph

Today
High -- | Low -- °F
--% Chance of Precip.
Yesterday
High -- | Low -- °F
Precip. -- in
Pressure 29.88 in
Visibility 15.0 miles
Clouds Few 8000 ft
Heat Index 89 °F
Dew Point 74 °F
Humidity 77%
Rainfall 0.00 in
Snow Depth Not available.
6:19 AM 7:47 PM
Waxing Crescent, 13% visible
METAR MMMZ 281840Z 22007KT 15SM FEW080 31/20 A2988 RMK 8/030
Pressure 29.88 in
Visibility 15.0 miles
Clouds Few 8000 ft
Heat Index 89 °F
Dew Point 74 °F
Humidity 77%
Rainfall 0.00 in
Snow Depth Not available.
6:19 AM 7:47 PM
Waxing Crescent, 13% visible
METAR MMMZ 281840Z 22007KT 15SM FEW080 31/20 A2988 RMK 8/030

Get Severe Weather Alerts

Thanks for signing up!

Be on the lookout for a verification email in your inbox.

You'll start receiving the daily forecast at 6 AM.

×

10-Day Weather Forecast

No radar image for this location.
×

Almanac

Astronomy

May. 28, 2017 Rise Set
Actual Time
Civil Twilight
Nautical Twilight
Astronomical Twilight
Moon
Length of Visible Light
Length of Day
Tomorrow will be .
, % of the Moon is Illuminated

Today's Extremes

Country Highs Country Lows

Community

WunderPhotos

Category 6

Welcome to Category 6. This is the collective home for Weather Underground's featured writeups by Dr. Jeff Masters (right), Bob Henson (left), Chris Burt, and other regular contributors.

Nearby

Air Quality

  Air Quality AQ Index Pollutant
Not available.

Snow Depth

Station Depth Elevation

Earthquake Activity

City Distance Mag. Time & Date
Minimum magnitude displayed is 2.5.

Coastal Water Temperatures

Place Temperature

Stations

Nearby Weather Stations

Station Location Temp. Windchill Dew Point Humidity Wind Precip. Elev Updated Type